Date,TemperatureHighF,TemperatureAvgF,TemperatureLowF,DewpointHighF,DewpointAvgF,DewpointLowF,HumidityHigh,HumidityAvg,HumidityLow,PressureMaxIn,PressureMinIn,WindSpeedMaxMPH,WindSpeedAvgMPH,GustSpeedMaxMPH,PrecipitationSumIn
2013-2-7,-200.0,0.0,200.0,-99.9,-99.9,-99.9,0,0,100,30.13,29.89,0,-999,0,0.00
2013-2-8,-200.0,0.0,200.0,-99.9,-99.9,-99.9,0,0,100,30.32,30.14,0,-999,0,0.00
2013-4-8,-200.0,0.0,200.0,-99.9,-99.9,-99.9,0,0,100,29.84,29.64,0,-999,0,0.00
2013-4-9,-200.0,0.0,200.0,-99.9,-99.9,-99.9,0,0,100,29.90,29.72,0,-999,0,0.00
2013-4-10,-200.0,0.0,200.0,-99.9,-99.9,-99.9,0,0,100,30.01,29.70,0,-999,0,0.00
2013-4-11,-200.0,0.0,200.0,-99.9,-99.9,-99.9,0,0,100,29.70,29.52,0,-999,0,0.00
2013-4-12,-200.0,0.0,200.0,-99.9,-99.9,-99.9,0,0,100,29.86,29.52,0,-999,0,0.00
2013-4-13,-200.0,0.0,200.0,-99.9,-99.9,-99.9,0,0,100,29.95,29.84,0,-999,0,0.00
2013-4-14,-200.0,0.0,200.0,-99.9,-99.9,-99.9,0,0,100,29.87,29.41,0,-999,0,0.00
2013-4-15,-200.0,0.0,200.0,-99.9,-99.9,-99.9,0,0,100,30.02,29.59,0,-999,0,0.00
2013-4-16,-200.0,0.0,200.0,-99.9,-99.9,-99.9,0,0,100,30.22,30.01,0,-999,0,0.00
2013-4-17,-200.0,0.0,200.0,-99.9,-99.9,-99.9,0,0,100,30.21,29.56,0,-999,0,0.00
2013-4-18,-200.0,0.0,200.0,-99.9,-99.9,-99.9,0,0,100,29.69,29.40,0,-999,0,0.00
2013-4-19,-200.0,0.0,200.0,-99.9,-99.9,-99.9,0,0,100,29.99,29.52,0,-999,0,0.00
2013-4-20,-200.0,0.0,200.0,-99.9,-99.9,-99.9,0,0,100,30.29,29.99,0,-999,0,0.00
2013-4-21,-200.0,0.0,200.0,-99.9,-99.9,-99.9,0,0,100,30.29,30.07,0,-999,0,0.00
2013-4-22,62.9,18.5,42.8,49.0,-50.9,-99.9,94,25,54,30.17,29.89,18,-663,23,0.02
2013-4-23,41.5,36.6,32.9,40.0,31.2,26.0,94,81,65,30.11,29.96,20,12,25,0.02
2013-4-24,51.8,39.8,28.5,38.0,30.1,25.0,89,71,38,30.15,30.01,19,9,27,0.18
2013-4-25,55.0,41.9,30.5,35.0,29.1,21.0,89,63,32,30.29,30.09,17,8,21,0.10
2013-4-26,67.1,55.1,41.3,49.0,42.3,32.0,89,64,46,30.20,30.11,22,10,27,0.07
2013-4-27,64.2,53.2,42.0,48.0,44.7,40.0,95,75,52,30.21,29.98,12,4,19,0.04
2013-4-28,73.0,57.6,39.7,50.0,45.7,38.0,96,69,40,29.98,29.74,13,4,19,0.03
2013-4-29,77.4,62.1,52.1,59.0,54.1,49.0,95,77,51,29.80,29.57,15,6,18,0.02
2013-4-30,81.9,72.9,56.8,60.0,55.3,43.0,78,55,42,29.84,29.55,28,13,32,0.02
2013-5-1,60.2,51.8,40.1,48.0,43.0,35.0,87,73,58,30.28,29.84,30,17,35,0.00
2013-5-2,39.7,34.8,32.1,35.0,32.5,31.0,97,91,82,30.40,30.23,27,16,33,0.01
2013-5-3,36.2,33.7,31.9,35.0,32.3,30.0,96,94,92,30.32,29.99,19,12,23,0.01
2013-5-4,66.0,51.9,36.2,60.0,49.3,35.0,97,91,78,30.05,29.93,17,11,21,0.01
2013-5-5,68.4,56.2,45.0,59.0,50.9,43.0,94,83,62,30.07,29.98,12,7,14,0.01
2013-5-6,74.0,60.8,49.0,56.0,50.0,45.0,95,72,36,30.07,29.97,11,4,12,0.00
2013-5-7,76.5,64.7,50.4,53.0,47.6,41.0,92,58,29,30.04,29.94,7,2,11,0.00
2013-5-8,76.6,63.4,52.0,59.0,51.9,47.0,94,69,38,29.98,29.91,12,3,23,0.01
2013-5-9,65.1,59.9,54.9,61.0,58.0,53.0,97,93,83,29.91,29.78,20,5,24,0.00
2013-5-10,63.4,54.2,46.8,54.0,49.4,44.0,94,84,62,30.00,29.86,17,8,21,0.01
2013-5-11,54.5,49.8,37.9,49.0,34.5,21.0,94,59,29,30.15,29.90,26,14,34,0.00
2013-5-12,57.8,46.1,32.8,32.0,27.9,24.0,84,53,27,30.23,30.10,15,6,21,0.00
2013-5-13,70.9,55.5,35.9,47.0,36.6,26.0,80,52,30,30.15,29.81,17,6,25,0.00
2013-5-14,95.1,76.3,54.4,60.0,53.8,46.0,87,51,24,29.80,29.50,26,9,30,0.00
2013-5-15,79.2,68.8,55.5,50.0,45.3,40.0,71,45,26,29.87,29.63,17,6,20,0.00
2013-5-16,82.3,70.3,54.1,53.0,48.9,45.0,77,49,29,29.89,29.78,16,4,22,0.00
2013-5-17,79.5,70.1,61.1,62.0,58.4,52.0,92,68,49,29.93,29.81,16,6,22,0.00
2013-5-18,82.9,71.1,58.4,65.0,60.1,54.0,94,70,50,29.94,29.78,18,8,25,0.00
2013-5-19,85.2,71.8,62.7,71.0,65.3,61.0,97,81,51,29.80,29.53,29,14,36,1.55
2013-5-20,77.1,66.6,59.5,64.0,60.4,57.0,97,82,56,29.62,29.52,24,9,34,0.34
2013-5-21,67.2,62.9,59.1,59.0,56.5,53.0,95,80,62,29.64,29.51,18,7,21,0.00
2013-5-22,64.7,57.7,53.2,59.0,54.5,50.0,96,89,79,29.78,29.61,20,6,22,0.21
2013-5-23,65.6,57.8,50.0,55.0,49.2,44.0,95,75,46,30.26,29.80,19,10,21,0.01
2013-5-24,67.3,56.1,43.1,49.0,43.1,38.0,89,65,35,30.40,30.19,16,7,28,0.01
2013-5-25,56.5,51.6,48.6,49.0,47.8,46.0,95,87,69,30.29,30.18,24,10,29,0.99
2013-5-26,54.8,51.0,47.5,54.0,49.3,46.0,97,94,88,30.21,29.94,29,9,46,1.27
2013-5-27,66.2,59.8,54.8,64.0,58.6,54.0,99,96,90,30.03,29.74,24,8,25,0.02
2013-5-28,76.0,65.8,58.2,69.0,63.1,58.0,99,91,72,29.75,29.62,11,4,15,0.54
2013-5-29,77.8,66.5,58.8,72.0,63.6,57.0,98,91,76,29.80,29.66,44,8,44,1.87
2013-5-30,75.1,68.9,62.0,67.0,64.3,60.0,94,85,72,29.69,29.54,24,13,30,0.02
2013-5-31,74.8,67.5,59.9,65.0,62.3,59.0,96,84,66,29.68,29.58,21,11,28,0.00
2013-6-1,67.7,63.5,57.8,63.0,58.1,52.0,95,83,68,29.81,29.56,20,9,23,0.00
2013-6-2,63.3,55.9,49.4,55.0,46.2,43.0,86,71,49,30.04,29.82,17,9,22,0.00
2013-6-3,69.6,59.7,45.5,50.0,46.5,43.0,94,64,41,30.09,29.96,11,3,17,0.00
2013-6-4,60.5,56.9,54.6,56.0,52.3,49.0,92,85,76,30.11,29.99,17,8,23,0.41
2013-6-5,65.5,60.1,56.0,61.0,57.9,53.0,97,92,80,30.02,29.89,10,3,14,0.29
2013-6-6,67.6,61.0,54.7,59.0,56.4,53.0,98,85,68,29.94,29.86,13,6,16,0.00
2013-6-7,66.8,59.9,55.3,57.0,54.7,52.0,94,83,60,29.98,29.90,10,4,14,0.00
2013-6-8,70.9,63.4,52.1,58.0,54.6,51.0,97,75,53,29.92,29.82,13,4,15,0.00
2013-6-9,66.1,64.7,63.2,57.0,56.1,56.0,80,74,69,29.82,29.75,17,10,21,0.00
2013-6-10,76.5,70.6,64.0,64.0,62.7,61.0,92,76,62,29.85,29.80,9,3,14,0.01
2013-6-11,85.0,72.3,60.8,69.0,64.7,59.0,95,78,53,29.87,29.73,12,4,17,0.00
2013-6-12,87.3,75.7,66.6,74.0,69.6,65.0,97,82,63,29.85,29.56,22,8,28,1.17
2013-6-13,79.1,70.5,62.3,66.0,60.5,56.0,96,73,46,30.00,29.75,15,6,20,0.00
2013-6-14,75.4,67.3,60.6,61.0,59.2,56.0,90,76,59,30.06,29.82,25,7,25,0.01
2013-6-15,77.0,70.3,63.8,71.0,66.6,62.0,96,88,77,29.97,29.80,15,6,24,0.13
2013-6-16,84.2,74.4,63.4,67.0,58.0,48.0,98,63,28,29.92,29.86,9,4,15,0.00
2013-6-17,87.2,75.5,60.8,62.0,56.8,52.0,86,56,31,29.92,29.83,15,4,20,0.00
2013-6-18,79.2,70.4,61.5,58.0,56.7,55.0,85,63,45,30.00,29.88,13,5,21,0.00
2013-6-19,82.6,71.2,60.0,60.0,57.3,54.0,84,63,41,30.07,29.95,16,6,22,0.00
2013-6-20,88.6,77.2,63.3,65.0,62.0,59.0,86,62,44,30.03,29.89,20,10,26,0.00
2013-6-21,84.6,76.2,63.9,75.0,68.7,63.0,95,78,67,30.00,29.80,24,11,26,0.53
2013-6-22,89.9,80.0,70.2,75.0,72.2,67.0,95,78,56,29.93,29.77,18,8,31,0.00
2013-6-23,80.4,74.4,66.5,73.0,68.7,64.0,93,82,66,29.92,29.77,17,8,23,0.17
2013-6-24,71.8,69.1,65.3,70.0,66.9,65.0,97,92,88,30.00,29.79,17,8,25,1.34
2013-6-25,85.8,75.4,66.3,75.0,70.5,64.0,98,85,64,29.81,29.68,13,6,18,0.16
2013-6-26,85.4,75.1,66.0,78.0,70.4,65.0,96,85,73,29.77,29.64,13,4,31,0.22
2013-6-27,84.9,75.3,65.8,73.0,66.1,61.0,94,75,46,29.83,29.76,16,5,23,0.00
2013-6-28,81.1,73.4,66.4,62.0,60.0,58.0,83,64,45,29.80,29.69,24,10,31,0.00
2013-6-29,72.0,66.4,63.3,65.0,61.4,58.0,95,84,70,29.86,29.67,20,9,25,0.09
2013-6-30,76.7,68.1,59.8,58.0,54.3,51.0,83,64,42,30.04,29.86,16,8,20,0.00
2013-7-1,80.3,69.4,57.2,58.0,53.5,46.0,88,60,31,30.11,30.04,18,5,21,0.00
2013-7-2,82.9,71.0,59.3,61.0,57.9,53.0,91,66,37,30.08,29.98,12,3,13,0.00
2013-7-3,79.0,69.5,59.9,59.0,55.1,49.0,87,63,37,30.04,29.95,8,2,11,0.00
2013-7-4,83.6,71.9,58.4,60.0,57.1,55.0,87,62,40,30.01,29.92,11,4,15,0.00
2013-7-5,85.5,74.3,59.7,63.0,60.5,57.0,91,64,41,29.98,29.88,17,6,24,0.02
2013-7-6,87.7,75.7,64.7,68.0,64.3,61.0,89,69,47,29.93,29.83,12,7,18,0.00
2013-7-7,89.3,78.9,66.3,70.0,67.6,64.0,94,70,48,29.88,29.81,15,6,21,0.00
2013-7-8,91.5,81.7,74.1,76.0,71.8,68.0,90,73,48,29.91,29.82,10,4,13,0.00
2013-7-9,88.1,79.1,71.7,78.0,74.4,71.0,96,86,67,29.90,29.80,12,4,20,0.35
2013-7-10,79.3,73.3,65.5,72.0,62.0,56.0,90,70,46,30.01,29.85,13,5,17,0.00
2013-7-11,80.5,70.3,59.5,62.0,59.3,56.0,95,71,46,30.09,30.01,13,3,15,0.00
2013-7-12,82.3,70.0,58.4,62.0,58.8,55.0,92,70,43,30.08,29.99,16,6,21,0.00
2013-7-13,71.5,66.6,61.4,67.0,61.2,58.0,90,83,76,30.11,30.00,14,4,15,0.05
2013-7-14,83.8,73.0,59.6,69.0,63.8,58.0,95,75,51,30.16,30.07,12,4,16,0.01
2013-7-15,86.5,75.9,65.3,75.0,69.5,63.0,94,81,64,30.21,30.12,7,3,11,0.00
2013-7-16,88.9,80.2,70.3,75.0,72.5,69.0,97,79,56,30.21,30.16,8,3,12,0.00
2013-7-17,92.7,82.3,71.9,76.0,72.3,69.0,94,74,48,30.25,30.12,5,1,8,0.00
2013-7-18,91.6,82.0,71.4,74.0,70.8,68.0,93,71,48,30.12,29.86,13,4,19,0.00
2013-7-19,89.9,79.2,68.7,77.0,68.9,61.0,84,71,51,29.86,29.76,15,6,17,0.03
2013-7-20,85.3,73.8,60.7,68.0,63.3,59.0,94,72,46,29.91,29.82,8,2,10,0.00
2013-7-21,81.3,72.6,65.3,70.0,66.1,62.0,94,81,60,29.88,29.77,14,4,18,0.00
2013-7-22,88.9,72.0,62.2,76.0,66.8,61.0,98,85,56,29.83,29.66,27,5,35,0.39
2013-7-23,76.6,68.1,60.2,65.0,58.8,55.0,91,74,50,29.96,29.75,12,5,15,0.00
2013-7-24,76.6,65.4,53.5,61.0,56.5,52.0,95,75,49,30.05,29.96,5,1,8,0.00
2013-7-25,82.7,69.1,56.5,67.0,61.4,55.0,97,78,50,30.02,29.90,12,4,26,1.34
2013-7-26,73.1,67.2,59.8,68.0,61.1,53.0,98,82,60,29.98,29.89,17,8,22,0.02
2013-7-27,65.3,57.7,51.2,53.0,49.7,45.0,90,76,54,30.03,29.94,15,6,20,0.00
2013-7-28,68.1,59.6,50.3,56.0,51.6,48.0,93,76,59,30.05,29.91,10,4,15,0.00
2013-7-29,73.4,62.3,48.8,59.0,54.2,48.0,96,76,53,30.13,30.05,9,2,14,0.00
2013-7-30,67.4,64.7,60.1,64.0,61.3,57.0,95,89,79,30.08,30.02,9,3,12,0.00
2013-7-31,78.5,68.8,59.4,69.0,63.9,59.0,98,85,62,30.07,29.96,10,3,13,0.01
2013-8-1,81.3,69.1,58.3,68.0,60.8,54.0,96,78,47,30.03,29.86,9,2,12,0.05
2013-8-2,79.7,68.9,63.0,66.0,62.9,58.0,96,83,50,29.98,29.84,6,2,10,0.07
2013-8-3,76.2,66.5,56.1,61.0,56.7,53.0,95,73,46,30.15,29.98,9,2,13,0.01
2013-8-4,76.1,66.7,54.1,59.0,56.4,52.0,95,72,49,30.18,30.04,7,2,15,0.00
2013-8-5,78.5,67.3,59.1,73.0,64.1,56.0,97,90,78,30.03,29.79,13,5,17,0.88
2013-8-6,84.6,73.9,62.7,73.0,68.8,62.0,98,85,58,29.84,29.73,9,2,13,0.01
2013-8-7,75.9,70.3,62.0,68.0,64.3,59.0,97,82,64,29.97,29.74,12,4,17,0.00
2013-8-8,78.5,66.8,55.5,66.0,59.5,54.0,94,79,52,30.01,29.94,5,1,8,0.00
2013-8-9,77.0,68.7,60.7,67.0,61.3,56.0,93,78,55,30.09,29.96,11,3,13,0.00
2013-8-10,78.3,66.5,52.9,65.0,58.1,51.0,95,76,54,30.17,30.06,5,1,9,0.00
2013-8-11,79.3,69.5,61.4,70.0,64.4,59.0,96,84,69,30.09,29.94,10,2,18,0.27
2013-8-12,77.7,68.9,59.1,69.0,62.7,57.0,98,83,55,30.00,29.93,13,4,20,0.01
2013-8-13,73.6,63.3,55.7,60.0,54.6,50.0,95,76,48,30.16,30.00,8,3,13,0.00
2013-8-14,73.9,61.0,49.2,60.0,52.6,47.0,97,77,43,30.21,30.11,4,1,8,0.00
2013-8-15,73.9,64.1,56.6,59.0,55.3,53.0,93,75,49,30.14,30.07,8,1,10,0.00
2013-8-16,78.1,64.6,50.6,61.0,55.5,50.0,98,75,47,30.18,30.12,5,1,9,0.00
2013-8-17,78.7,66.8,53.9,62.0,57.1,53.0,97,74,45,30.20,30.11,10,2,10,0.00
2013-8-18,78.3,65.8,54.2,64.0,58.2,53.0,97,78,52,30.17,30.05,10,2,14,0.00
2013-8-19,80.3,67.5,55.4,68.0,60.9,54.0,94,81,56,30.06,29.96,10,-40,16,0.00
2013-8-20,84.4,72.9,61.6,72.0,66.6,60.0,96,82,63,29.99,29.90,15,-70,19,0.00
2013-8-21,84.6,75.7,66.9,74.0,69.8,65.0,94,82,65,29.95,29.89,14,-59,17,0.00
2013-8-22,80.6,72.6,67.1,71.0,68.7,66.0,96,88,70,30.07,29.93,7,-77,10,0.24
2013-8-23,80.6,70.9,61.1,70.0,66.3,60.0,99,86,68,30.12,30.03,15,-17,15,0.01
2013-8-24,85.7,74.9,64.5,76.0,69.5,62.0,91,83,67,30.14,30.04,15,-68,18,0.00
2013-8-25,89.4,78.9,66.9,74.0,70.4,66.0,95,77,56,30.12,30.01,14,-45,17,0.00
2013-8-29,91.8,78.9,74.9,74.0,66.9,-99.9,94,74,48,29.90,0.00,5,-31,8,0.00
2013-8-30,94.0,82.0,71.7,80.0,75.1,70.0,97,81,59,29.86,29.72,8,3,11,0.04
2013-8-31,84.1,74.3,69.4,73.0,70.4,69.0,98,88,65,29.80,29.73,13,2,14,0.37
2013-9-1,79.6,72.0,60.8,72.0,65.2,59.0,98,81,52,29.89,29.71,16,5,21,0.01
2013-9-2,71.5,62.8,52.0,58.0,55.5,50.0,96,79,55,30.03,29.89,13,5,14,0.01
2013-9-3,75.1,60.2,45.5,61.0,53.2,45.0,97,80,47,30.10,30.01,5,1,9,0.00
2013-9-4,85.9,70.2,54.3,70.0,61.3,52.0,93,75,50,30.11,30.03,7,1,13,0.00
2013-9-5,84.0,72.8,62.6,72.0,67.1,61.0,97,83,63,30.13,30.07,9,2,11,0.00
2013-9-6,87.1,73.5,61.4,68.0,63.7,60.0,95,74,43,30.11,29.90,10,4,15,0.00
2013-9-7,88.9,76.0,64.8,74.0,67.8,61.0,91,77,57,29.91,29.82,8,2,14,0.02
2013-9-8,75.8,72.0,69.3,71.0,68.7,67.0,95,89,81,29.95,29.83,12,6,21,0.00
2013-9-9,96.2,79.5,67.0,73.0,67.6,64.0,99,71,35,29.83,29.71,13,4,19,0.00
2013-9-10,94.4,79.8,64.1,71.0,64.7,61.0,89,62,37,29.94,29.78,14,5,24,0.00
2013-9-11,83.4,71.5,63.8,68.0,65.1,61.0,97,82,57,30.03,29.94,7,2,13,0.38
2013-9-12,75.3,65.5,57.2,62.0,53.0,48.0,92,67,40,30.15,30.00,17,7,22,0.00
2013-9-13,69.1,57.9,47.3,49.0,46.6,44.0,91,68,41,30.24,30.11,7,3,11,0.00
2013-9-14,73.7,59.2,43.2,48.0,44.8,41.0,94,63,34,30.14,29.89,13,5,18,0.00
2013-9-15,63.9,59.8,53.3,59.0,54.6,47.0,94,83,57,30.21,29.85,13,5,16,0.38
2013-9-16,64.7,56.1,49.4,53.0,51.3,46.0,97,85,64,30.37,30.21,10,3,11,0.01
2013-9-17,63.3,56.3,48.8,61.0,53.2,46.0,94,89,80,30.27,30.00,16,7,19,0.01
2013-9-18,87.5,71.4,62.4,72.0,65.9,61.0,98,84,56,30.00,29.73,17,7,21,0.21
2013-9-19,85.6,73.2,66.2,72.0,68.3,65.0,98,85,57,29.78,29.66,13,6,20,0.81
2013-9-20,66.7,59.2,50.3,66.0,53.9,48.0,97,83,65,29.92,29.78,14,7,23,0.00
2013-9-21,67.2,54.5,43.1,50.0,46.9,42.0,96,78,50,29.99,29.89,12,4,15,0.01
2013-9-22,73.3,58.4,45.2,55.0,50.1,43.0,96,77,49,30.00,29.89,11,5,16,0.01
2013-9-23,73.6,59.2,46.3,53.0,49.6,45.0,95,73,45,30.00,29.88,16,7,22,0.00
2013-9-24,71.5,59.7,48.1,57.0,51.4,46.0,93,76,50,29.93,29.86,11,4,17,0.00
2013-9-25,74.7,61.5,48.4,56.0,52.2,47.0,95,74,49,29.95,29.85,10,2,15,0.00
2013-9-26,82.7,67.1,53.0,61.0,56.6,51.0,92,72,46,29.95,29.87,18,7,22,0.00
2013-9-27,83.1,70.0,59.1,65.0,59.3,56.0,91,71,47,29.99,29.87,24,9,27,0.00
2013-9-28,71.2,60.8,47.8,65.0,56.3,46.0,95,85,71,30.00,29.76,17,7,24,0.27
2013-9-29,71.6,56.0,42.0,51.0,45.7,40.0,96,72,38,30.06,29.92,16,3,20,0.01
2013-9-30,75.0,59.5,46.0,56.0,49.0,43.0,93,71,41,29.93,29.72,22,6,24,0.00
2013-10-1,80.7,66.9,57.2,59.0,53.4,45.0,94,66,33,29.95,29.76,10,4,15,0.00
2013-10-2,81.3,66.0,51.9,60.0,49.6,39.0,87,59,28,30.04,29.85,16,5,21,0.00
2013-10-3,79.6,68.9,61.3,68.0,62.8,59.0,97,83,54,29.84,29.73,11,4,19,0.01
2013-10-4,69.9,65.9,61.8,69.0,64.4,61.0,96,95,90,29.90,29.73,22,6,26,0.49
2013-10-5,69.5,57.7,41.1,67.0,49.7,37.0,94,76,49,29.86,29.75,10,4,18,0.00
2013-10-6,49.5,45.9,40.7,48.0,41.9,38.0,95,86,77,29.83,29.71,10,2,12,0.01
2013-10-7,71.2,56.2,41.0,50.0,45.5,39.0,95,71,41,30.02,29.83,16,6,21,0.00
2013-10-8,76.5,59.9,44.9,49.0,44.8,42.0,92,62,31,30.07,29.97,19,7,23,0.00
2013-10-9,74.4,60.0,48.5,52.0,46.9,43.0,89,65,34,30.12,30.03,17,6,19,0.00
2013-10-10,75.3,59.1,46.1,54.0,48.2,42.0,92,70,42,30.08,29.93,17,6,31,0.00
2013-10-11,76.1,63.8,51.3,59.0,54.0,50.0,94,73,46,29.93,29.74,28,11,33,0.00
2013-10-12,66.1,56.4,42.2,59.0,41.1,31.0,85,59,29,30.21,29.77,20,8,26,0.00
2013-10-13,62.3,49.0,35.9,38.0,32.2,29.0,84,56,29,30.44,30.21,9,2,14,0.00
2013-10-14,63.3,51.2,37.3,44.0,37.7,32.0,84,62,41,30.38,29.91,21,9,27,0.03
2013-10-15,57.5,51.6,47.6,56.0,46.2,42.0,95,82,63,29.90,29.76,21,12,26,0.25
2013-10-16,48.6,46.7,45.7,46.0,44.0,43.0,93,90,86,29.97,29.83,17,7,22,0.01
2013-10-17,59.4,47.9,40.4,43.0,38.4,33.0,94,73,38,29.94,29.80,12,3,17,0.00
2013-10-18,51.4,44.5,39.1,42.0,34.9,29.0,88,70,44,30.00,29.88,16,8,22,0.00
2013-10-19,52.3,40.9,33.6,41.0,35.3,30.0,93,81,60,29.93,29.76,21,7,30,0.05
2013-10-20,57.7,43.8,32.7,45.0,37.3,30.0,91,79,57,29.89,29.68,18,-46,24,0.00
2013-10-21,45.1,37.2,27.6,35.0,26.9,22.0,88,68,48,30.03,29.89,18,-317,23,0.00
2013-10-22,38.4,33.3,26.6,35.0,29.9,23.0,95,87,74,30.06,29.95,11,-223,14,0.15
2013-10-23,40.7,35.7,28.1,34.0,28.5,22.0,89,76,59,30.12,30.04,17,-88,20,0.00
2013-10-24,42.4,35.4,30.4,27.0,25.3,24.0,81,68,52,30.37,30.12,16,-164,20,0.00
2013-10-25,53.6,39.6,24.6,37.0,28.2,22.0,91,67,39,30.40,29.98,18,-101,24,0.00
2013-10-26,50.8,42.2,31.7,35.0,29.7,25.0,83,63,42,30.13,29.90,21,-127,25,0.00
2013-10-27,58.6,40.5,26.4,34.0,29.3,23.0,87,67,38,30.10,29.87,15,-134,18,0.00
2013-10-28,49.5,41.2,34.3,37.0,33.2,30.0,83,74,61,30.34,30.00,16,-234,23,0.00
2013-10-29,56.1,46.6,37.6,45.0,37.5,32.0,85,71,59,30.34,30.05,15,-194,18,0.00
2013-10-30,58.4,53.2,50.2,57.0,51.6,45.0,98,94,78,30.05,29.62,16,-176,25,0.38
2013-10-31,59.7,46.7,40.3,59.0,45.2,38.0,98,94,88,29.61,29.41,17,-162,19,0.02
2013-11-1,52.6,44.1,40.4,44.0,39.6,37.0,93,84,60,29.81,29.46,15,-100,20,0.01
2013-11-2,50.5,41.7,33.1,38.0,33.9,29.0,92,76,48,30.15,29.82,18,-268,23,0.00
2013-11-3,52.3,36.6,29.6,39.0,30.9,27.0,90,81,55,30.20,30.09,25,-136,28,0.00
2013-11-4,53.6,46.3,42.7,47.0,43.3,35.0,95,90,50,30.16,29.97,20,-113,22,0.05
2013-11-5,55.5,46.4,37.0,55.0,45.2,36.0,98,95,89,30.20,29.77,17,-147,25,0.79
2013-11-6,48.7,37.6,27.9,48.0,32.1,25.0,97,82,54,30.26,29.77,20,-106,27,0.15
2013-11-7,45.3,33.7,25.7,35.0,28.8,23.0,92,82,67,30.31,30.23,17,-142,21,0.00
2013-11-8,47.9,37.0,22.7,38.0,29.1,20.0,92,75,51,30.29,29.78,25,-148,33,0.00
2013-11-9,51.9,44.4,34.3,41.0,36.5,29.0,83,74,60,30.25,29.79,22,-127,26,0.00
2013-11-12,34.5,18.4,15.0,30.0,12.9,10.0,83,79,67,30.69,30.25,4,-102,7,0.00
2013-11-13,45.6,30.4,15.7,23.0,17.5,11.0,83,61,37,30.59,30.07,21,-88,22,0.00
2013-11-14,49.3,39.6,31.9,31.0,26.3,20.0,73,60,46,30.06,29.88,14,-162,20,0.00
2013-11-15,54.8,39.9,25.7,39.0,31.7,22.0,90,74,53,29.94,29.78,10,-216,14,0.00
2013-11-16,60.7,50.0,37.2,58.0,47.9,33.0,97,92,86,29.77,29.32,22,-118,29,1.06
2013-11-17,51.5,45.0,36.8,51.0,42.9,34.0,98,92,82,29.88,29.28,25,-167,29,0.42
2013-11-18,40.2,34.8,27.2,34.0,29.6,24.0,92,81,65,30.31,29.89,21,-473,25,0.42
2013-11-19,44.2,33.8,23.8,33.0,28.3,22.0,94,81,64,30.32,30.10,18,-479,24,0.00
2013-11-20,37.8,36.4,34.9,36.0,32.5,29.0,96,86,70,30.10,29.96,18,-477,23,0.01
2013-11-21,40.0,35.0,29.3,38.0,33.7,28.0,97,95,92,30.39,30.06,18,-423,20,0.01
2013-11-22,29.3,22.9,15.1,28.0,18.8,11.0,94,84,76,30.62,30.40,16,-542,25,0.01
2013-11-23,18.4,14.9,10.4,14.0,7.9,5.0,83,74,64,30.84,30.59,23,-427,24,0.00
2013-11-26,27.0,21.5,14.0,21.0,11.4,6.0,77,65,56,30.36,30.21,23,-279,29,0.00
2013-11-27,21.4,17.7,15.0,12.0,10.9,7.0,81,75,67,30.27,30.15,11,-420,15,0.00
2013-11-28,30.1,19.4,11.5,21.0,13.8,8.0,88,79,66,30.56,30.12,15,-249,18,0.00
2013-11-29,31.7,21.5,7.9,24.0,16.7,5.0,91,82,71,30.60,30.30,16,-214,18,0.00
2013-11-30,43.7,32.0,22.6,35.0,27.2,20.0,90,82,69,30.29,30.06,11,-165,13,0.00
2013-12-1,39.6,32.5,25.1,30.0,28.1,23.0,92,84,68,30.18,29.95,7,-144,9,0.00
2013-12-2,40.5,30.4,29.9,36.0,15.6,-99.9,95,79,82,29.95,29.62,17,-202,21,0.00
2013-12-3,40.2,28.6,34.2,40.0,6.1,-99.9,98,76,94,29.68,29.57,12,-248,14,0.01
2013-12-4,44.7,23.8,22.8,45.0,-7.0,-99.9,99,67,89,29.83,29.43,21,-336,27,0.02
2013-12-5,22.3,13.8,7.3,20.0,6.3,-99.9,89,77,72,30.42,29.83,25,-70,30,0.02
2013-12-6,13.3,6.7,1.1,4.0,0.1,-4.0,80,74,65,30.72,30.42,14,9,18,0.00
2013-12-7,11.1,4.6,-2.1,2.0,-2.6,-7.0,80,73,57,30.83,30.64,11,4,13,0.00
2013-12-8,18.5,14.8,10.1,16.0,10.0,2.0,92,81,67,30.63,30.05,13,5,17,0.00
2013-12-9,15.3,0.8,-9.7,13.0,-6.5,-99.9,92,79,73,30.31,30.06,17,-25,22,0.00
2013-12-10,15.9,10.6,-3.0,13.0,-5.6,-99.9,90,70,72,30.31,30.00,21,-110,29,0.00
2013-12-11,16.4,2.2,-9.5,14.0,-3.0,-15.0,91,79,68,30.66,30.29,18,6,25,0.00
2013-12-12,19.3,9.3,-6.1,14.0,4.5,-11.0,90,81,73,30.58,30.22,11,4,13,0.00
2013-12-13,25.2,17.7,6.7,20.0,14.2,4.0,91,86,81,30.21,30.07,14,6,18,0.00
2013-12-14,20.9,17.5,11.4,18.0,14.3,7.0,92,87,81,30.17,30.12,16,10,21,0.00
2013-12-15,11.5,8.7,5.1,7.0,3.5,0.0,87,79,71,30.19,30.14,15,6,19,0.00
2013-12-16,20.5,14.8,9.6,19.0,12.1,6.0,93,89,85,30.17,30.04,13,6,16,0.00
2013-12-17,31.0,23.4,13.5,27.0,19.1,11.0,92,83,75,30.20,30.06,23,11,30,0.00
2013-12-18,40.9,27.0,11.7,33.0,22.1,9.0,90,82,71,30.18,29.77,20,5,22,0.00
2013-12-19,32.2,28.7,23.7,28.0,25.7,22.0,95,88,80,29.93,29.80,15,7,19,0.00
2013-12-20,28.7,23.5,22.1,28.0,22.0,21.0,95,93,91,29.91,29.83,14,6,15,0.00
2013-12-21,26.5,23.9,21.7,25.0,22.3,20.0,95,93,91,29.92,29.78,14,7,20,0.00
2013-12-22,26.5,17.2,1.0,25.0,14.7,-3.0,95,90,82,30.31,29.78,17,11,20,0.00
2013-12-23,0.6,-3.1,-10.7,-4.0,-8.2,-16.0,83,79,75,30.62,30.32,18,10,20,0.00
2013-12-24,10.9,-3.5,-18.0,8.0,-8.5,-23.0,89,79,71,30.64,30.32,16,7,19,0.00
2013-12-25,27.7,19.1,11.2,26.0,16.7,9.0,93,90,81,30.31,30.18,20,7,23,0.00
2013-12-26,31.2,22.0,14.4,26.0,18.8,11.0,92,87,78,30.25,30.13,6,2,9,0.00
2013-12-27,39.4,27.1,13.7,31.0,22.9,12.0,94,84,72,30.27,30.07,14,5,18,0.00
2013-12-28,40.6,33.6,23.6,33.0,28.7,21.0,93,82,74,30.09,29.77,19,5,24,0.00
2013-12-29,25.7,8.4,-8.6,24.0,3.7,-14.0,93,81,70,30.38,29.88,27,15,31,0.00
2013-12-30,4.7,-2.3,-10.8,2.0,-10.7,-99.9,87,78,74,30.39,30.25,8,-40,11,0.00
2013-12-31,7.0,1.3,-11.6,3.0,-2.3,-16.0,88,84,81,30.42,30.30,11,4,13,0.00
2014-1-1,7.2,5.6,2.6,2.0,0.8,-1.0,85,80,75,30.42,30.33,14,10,16,0.00
2014-1-2,6.6,1.1,-11.6,1.0,-4.5,-16.0,83,77,71,30.55,30.38,13,8,15,0.00